Time;durP1;ratioP1;P1;durP2;ratioP2;P2;SDS_P1;SDS_P2;PMS_P1;PMS_P2;Temp;Humidity;BMP_temperature;BMP_pressure;BME280_temperature;BME280_humidity;BME280_pressure;Samples;Min_cycle;Max_cycle;Signal;HPM_P1;HPM_P2
2022/09/15 00:01:14;;;;;;;3.90;3.60;;;18.70;99.90;;;;;;4974335;28;20483;-84
2022/09/15 00:03:43;;;;;;;3.27;3.07;;;18.70;99.90;;;;;;4974472;28;20487;-86
2022/09/15 00:06:11;;;;;;;2.70;2.50;;;18.60;99.90;;;;;;4974137;28;20473;-86
2022/09/15 00:08:41;;;;;;;2.30;2.20;;;18.60;99.90;;;;;;4974416;28;20506;-87
2022/09/15 00:11:11;;;;;;;3.00;2.70;;;18.50;99.90;;;;;;4973688;28;20479;-87
2022/09/15 00:13:41;;;;;;;3.57;3.27;;;18.50;99.90;;;;;;4973241;28;20538;-87
2022/09/15 00:16:09;;;;;;;2.17;2.07;;;18.60;99.90;;;;;;4973081;28;20459;-84
2022/09/15 00:18:37;;;;;;;1.40;1.40;;;18.50;99.90;;;;;;4973166;28;20973;-87
2022/09/15 00:21:06;;;;;;;2.07;1.93;;;18.40;99.90;;;;;;4973015;28;20482;-87
2022/09/15 00:23:33;;;;;;;8.00;2.80;;;18.40;99.90;;;;;;4972872;28;21015;-86
2022/09/15 00:26:01;;;;;;;3.67;2.30;;;18.50;99.90;;;;;;4972736;28;20453;-86
2022/09/15 00:28:28;;;;;;;3.50;2.00;;;18.60;99.90;;;;;;4974298;28;20466;-87
2022/09/15 00:30:56;;;;;;;1.70;1.60;;;18.60;99.90;;;;;;4976465;28;20475;-86
2022/09/15 00:33:24;;;;;;;1.77;1.67;;;18.60;99.90;;;;;;4977043;28;20455;-86
2022/09/15 00:35:54;;;;;;;2.83;1.73;;;18.60;99.90;;;;;;4976729;28;20458;-84
2022/09/15 00:38:21;;;;;;;2.60;2.40;;;18.70;99.90;;;;;;4976378;28;20494;-84
2022/09/15 00:40:50;;;;;;;1.63;1.53;;;18.70;99.90;;;;;;4976335;28;20882;-84
2022/09/15 00:43:19;;;;;;;2.17;1.97;;;18.70;99.90;;;;;;4977145;28;20490;-84
2022/09/15 00:45:47;;;;;;;2.53;1.83;;;18.70;99.90;;;;;;4985140;28;20459;-84
2022/09/15 00:48:18;;;;;;;2.17;2.07;;;18.60;99.90;;;;;;4985313;28;20538;-84
2022/09/15 00:50:50;;;;;;;7.10;2.80;;;18.70;99.90;;;;;;4976798;28;20962;-87
2022/09/15 00:53:19;;;;;;;2.53;2.10;;;18.70;99.90;;;;;;4976867;28;20443;-86
2022/09/15 00:55:49;;;;;;;2.50;2.40;;;18.70;99.90;;;;;;4976900;28;20469;-86
2022/09/15 00:58:20;;;;;;;2.10;1.90;;;18.70;99.90;;;;;;4976614;28;20471;-86
2022/09/15 01:00:55;;;;;;;2.40;2.30;;;18.80;99.90;;;;;;4976415;28;20494;-86
2022/09/15 01:03:23;;;;;;;2.10;1.90;;;18.80;99.90;;;;;;4976232;28;20841;-86
2022/09/15 01:05:55;;;;;;;3.50;2.00;;;18.70;99.90;;;;;;4976677;28;20474;-87
2022/09/15 01:08:30;;;;;;;2.67;2.47;;;18.70;99.90;;;;;;4975840;28;20830;-87
2022/09/15 01:10:58;;;;;;;2.27;2.17;;;18.60;99.90;;;;;;4975967;28;21018;-86
2022/09/15 01:13:25;;;;;;;2.23;1.70;;;18.60;99.90;;;;;;4975252;28;20455;-86
2022/09/15 01:16:01;;;;;;;2.77;2.57;;;18.60;99.90;;;;;;4975786;28;21028;-86
2022/09/15 01:18:35;;;;;;;2.20;2.10;;;18.60;99.90;;;;;;4975501;28;20447;-86
2022/09/15 01:21:09;;;;;;;2.70;2.20;;;18.60;99.90;;;;;;4975649;28;20847;-86
2022/09/15 01:24:12;;;;;;;3.90;2.40;;;18.60;99.90;;;;;;4975828;28;20487;-86
2022/09/15 01:27:13;;;;;;;3.57;2.50;;;18.50;99.90;;;;;;4976074;28;20494;-86
2022/09/15 01:30:03;;;;;;;2.43;1.80;;;18.50;99.90;;;;;;4915404;29;20546;-86
2022/09/15 01:35:33;;;;;;;2.00;1.80;;;18.30;99.90;;;;;;4967107;28;20534;-87
2022/09/15 01:38:05;;;;;;;1.93;1.83;;;18.40;99.90;;;;;;4975603;28;20458;-87
2022/09/15 01:40:38;;;;;;;1.93;1.73;;;18.30;99.90;;;;;;4974089;28;20479;-87
2022/09/15 01:43:08;;;;;;;1.60;1.50;;;18.30;99.90;;;;;;4975936;28;20502;-87
2022/09/15 01:45:40;;;;;;;2.03;1.80;;;18.20;99.90;;;;;;4975373;28;20443;-86
2022/09/15 01:48:09;;;;;;;7.40;2.03;;;18.20;99.90;;;;;;4975170;28;20462;-87
2022/09/15 01:50:40;;;;;;;1.93;1.60;;;18.20;99.90;;;;;;4974806;28;20855;-87
2022/09/15 01:53:21;;;;;;;2.80;2.30;;;18.20;99.90;;;;;;4975114;28;20458;-87
2022/09/15 01:55:53;;;;;;;2.27;2.07;;;18.20;99.90;;;;;;4974480;28;20471;-84
2022/09/15 01:58:21;;;;;;;1.90;1.80;;;18.20;99.90;;;;;;4956158;29;20425;-85
2022/09/15 02:00:53;;;;;;;1.87;1.77;;;18.20;99.90;;;;;;4955986;28;20487;-85
2022/09/15 02:03:25;;;;;;;2.40;1.90;;;18.20;99.90;;;;;;4955939;29;20576;-87
2022/09/15 02:06:01;;;;;;;1.97;1.70;;;18.20;99.90;;;;;;4968399;28;20455;-85
2022/09/15 02:08:36;;;;;;;2.57;1.90;;;18.20;99.90;;;;;;4974796;28;20462;-85
2022/09/15 02:11:14;;;;;;;1.73;1.60;;;18.10;99.90;;;;;;4974939;28;20846;-85
2022/09/15 02:13:47;;;;;;;1.60;1.50;;;18.10;99.90;;;;;;4974903;28;20458;-85
2022/09/15 02:16:19;;;;;;;1.67;1.57;;;18.00;99.90;;;;;;4974594;28;20479;-85
2022/09/15 02:19:08;;;;;;;3.00;1.70;;;18.10;99.90;;;;;;4974464;28;20459;-85
2022/09/15 02:21:52;;;;;;;1.87;1.77;;;18.10;99.90;;;;;;4974622;28;20481;-85
2022/09/15 02:24:24;;;;;;;2.30;2.10;;;18.10;99.90;;;;;;4974768;28;20566;-85
2022/09/15 02:26:53;;;;;;;2.97;1.80;;;18.00;99.90;;;;;;4955396;29;20519;-85
2022/09/15 02:29:21;;;;;;;1.97;1.87;;;18.00;99.90;;;;;;4955071;28;20881;-85
2022/09/15 02:31:53;;;;;;;4.00;2.20;;;18.10;99.90;;;;;;4974173;28;20490;-85
2022/09/15 02:34:24;;;;;;;2.70;1.80;;;18.10;99.90;;;;;;4974615;28;20449;-85
2022/09/15 02:36:53;;;;;;;1.80;1.70;;;18.10;99.90;;;;;;4974956;28;20825;-85
2022/09/15 02:39:26;;;;;;;5.43;1.70;;;18.00;99.90;;;;;;4974319;28;20451;-85
2022/09/15 02:41:53;;;;;;;1.80;1.70;;;18.00;99.90;;;;;;4973995;28;20475;-85
2022/09/15 02:44:19;;;;;;;2.40;1.53;;;18.00;99.90;;;;;;4974404;28;20495;-85
2022/09/15 02:46:46;;;;;;;1.87;1.77;;;18.10;99.90;;;;;;4974528;28;20462;-85
2022/09/15 02:49:14;;;;;;;1.80;1.70;;;18.00;99.90;;;;;;4974701;28;20452;-85
2022/09/15 02:51:44;;;;;;;3.60;2.00;;;18.00;99.90;;;;;;4973758;28;21000;-86
2022/09/15 02:54:13;;;;;;;3.73;1.50;;;18.10;99.90;;;;;;4974450;28;20475;-85
2022/09/15 02:56:40;;;;;;;1.20;1.20;;;18.00;99.90;;;;;;4989553;28;20439;-85
2022/09/15 02:59:06;;;;;;;1.90;1.60;;;17.90;99.90;;;;;;4973784;28;20458;-86
2022/09/15 03:01:33;;;;;;;8.13;3.43;;;18.00;99.90;;;;;;4973901;28;20498;-86
2022/09/15 03:04:01;;;;;;;1.40;1.30;;;18.00;99.90;;;;;;4974006;28;20859;-86
2022/09/15 03:06:34;;;;;;;2.37;2.23;;;18.10;99.90;;;;;;4973659;28;20458;-85
2022/09/15 03:09:05;;;;;;;2.07;1.37;;;18.00;99.90;;;;;;4973317;28;21020;-85
2022/09/15 03:11:32;;;;;;;2.37;2.17;;;17.90;99.90;;;;;;4973692;28;21007;-85
2022/09/15 03:14:01;;;;;;;3.03;1.80;;;17.90;99.90;;;;;;4975115;28;20454;-85
2022/09/15 03:16:29;;;;;;;1.67;1.57;;;17.90;99.90;;;;;;4982052;28;20470;-85
2022/09/15 03:18:59;;;;;;;4.33;1.90;;;17.90;99.90;;;;;;4980780;28;20459;-85
2022/09/15 03:21:28;;;;;;;2.10;1.80;;;17.90;99.90;;;;;;4974419;28;20833;-85
2022/09/15 03:23:59;;;;;;;2.10;1.60;;;18.00;99.90;;;;;;4973804;28;21256;-85
2022/09/15 03:26:27;;;;;;;1.70;1.60;;;17.90;99.90;;;;;;4973647;28;21024;-85
2022/09/15 03:28:53;;;;;;;2.30;1.90;;;17.90;99.90;;;;;;4973272;28;21035;-85
2022/09/15 03:31:23;;;;;;;2.40;1.87;;;17.80;99.90;;;;;;4973196;28;20482;-85
2022/09/15 03:33:53;;;;;;;2.50;1.70;;;17.80;99.90;;;;;;4973927;28;20462;-85
2022/09/15 03:36:20;;;;;;;2.07;1.90;;;17.80;99.90;;;;;;4973524;28;20459;-86
2022/09/15 03:38:47;;;;;;;1.90;1.80;;;17.70;99.90;;;;;;4973528;28;20604;-85
2022/09/15 03:41:15;;;;;;;2.00;1.63;;;17.70;99.90;;;;;;4973158;28;20856;-85
2022/09/15 03:43:42;;;;;;;1.87;1.33;;;17.70;99.90;;;;;;4973449;28;20585;-85
2022/09/15 03:46:11;;;;;;;1.83;1.60;;;17.70;99.90;;;;;;4973384;28;20466;-86
2022/09/15 03:48:39;;;;;;;1.90;1.73;;;17.70;99.90;;;;;;4973469;28;20481;-85
2022/09/15 03:51:10;;;;;;;1.70;1.50;;;17.70;99.90;;;;;;4986218;28;20513;-85
2022/09/15 03:53:40;;;;;;;2.30;2.10;;;17.70;99.90;;;;;;4975546;28;20442;-85
2022/09/15 03:56:14;;;;;;;2.27;2.07;;;17.70;99.90;;;;;;4973621;28;20473;-85
2022/09/15 03:58:43;;;;;;;1.97;1.87;;;17.70;99.90;;;;;;4973268;28;20478;-86
2022/09/15 04:01:09;;;;;;;1.90;1.50;;;17.70;99.90;;;;;;4973455;28;20483;-86
2022/09/15 04:03:36;;;;;;;1.63;1.53;;;17.70;99.90;;;;;;4974530;28;20490;-86
2022/09/15 04:06:03;;;;;;;2.73;1.70;;;17.60;99.90;;;;;;4977194;28;20841;-86
2022/09/15 04:08:30;;;;;;;1.77;1.67;;;17.60;99.90;;;;;;4976729;28;20455;-86
2022/09/15 04:10:59;;;;;;;1.67;1.57;;;17.60;99.90;;;;;;4976786;28;20562;-85
2022/09/15 04:13:26;;;;;;;1.63;1.53;;;17.50;99.90;;;;;;4977337;28;20454;-86
2022/09/15 04:16:00;;;;;;;1.50;1.40;;;17.60;99.90;;;;;;4977241;28;21024;-85
2022/09/15 04:18:27;;;;;;;2.37;1.93;;;17.50;99.90;;;;;;4976606;28;20964;-85
2022/09/15 04:20:54;;;;;;;1.93;1.83;;;17.50;99.90;;;;;;4977001;28;20851;-85
2022/09/15 04:23:25;;;;;;;1.80;1.70;;;17.50;99.90;;;;;;4976742;28;20647;-86
2022/09/15 04:25:59;;;;;;;1.83;1.73;;;17.50;99.90;;;;;;4976874;28;20485;-85
2022/09/15 04:28:27;;;;;;;2.50;1.97;;;17.50;99.90;;;;;;4976886;28;20433;-86
2022/09/15 04:31:02;;;;;;;2.50;2.23;;;17.40;99.90;;;;;;4976483;28;21078;-86
2022/09/15 04:33:32;;;;;;;2.50;1.80;;;17.40;99.90;;;;;;4976824;28;20465;-86
2022/09/15 04:35:59;;;;;;;2.33;2.20;;;17.40;99.90;;;;;;4976498;28;20489;-86
2022/09/15 04:38:26;;;;;;;1.77;1.20;;;17.40;99.90;;;;;;4976795;28;20453;-85
2022/09/15 04:40:56;;;;;;;1.20;0.97;;;17.40;99.90;;;;;;4976479;28;20489;-86
2022/09/15 04:43:24;;;;;;;1.40;1.30;;;17.40;99.90;;;;;;4976784;28;20493;-86
2022/09/15 04:45:59;;;;;;;2.20;1.43;;;17.40;99.90;;;;;;4988651;28;20439;-87
2022/09/15 04:48:29;;;;;;;3.47;1.50;;;17.40;99.90;;;;;;4979110;28;20525;-86
2022/09/15 04:51:02;;;;;;;4.83;1.93;;;17.40;99.90;;;;;;4976413;28;20482;-86
2022/09/15 04:53:33;;;;;;;1.40;1.30;;;17.50;99.90;;;;;;4976731;28;20440;-86
2022/09/15 04:56:16;;;;;;;1.30;1.20;;;17.40;99.90;;;;;;4976306;28;20477;-86
2022/09/15 04:58:45;;;;;;;2.00;1.77;;;17.40;99.90;;;;;;4976616;28;20586;-86
2022/09/15 05:01:14;;;;;;;1.83;1.30;;;17.40;99.90;;;;;;4976422;28;20478;-86
2022/09/15 05:03:45;;;;;;;1.50;1.40;;;17.30;99.90;;;;;;4976484;28;20516;-86
2022/09/15 05:06:15;;;;;;;1.40;1.30;;;17.40;99.90;;;;;;4975892;28;20464;-86
2022/09/15 05:08:42;;;;;;;2.73;1.80;;;17.40;99.90;;;;;;4982134;28;20441;-87
2022/09/15 05:11:11;;;;;;;2.03;1.50;;;17.30;99.90;;;;;;4989057;28;20910;-86
2022/09/15 05:13:40;;;;;;;1.50;1.40;;;17.40;99.90;;;;;;4994749;28;20462;-86
2022/09/15 05:16:12;;;;;;;3.70;1.40;;;17.30;99.90;;;;;;4984356;28;20453;-87
2022/09/15 05:18:39;;;;;;;1.40;1.30;;;17.40;99.90;;;;;;4991674;28;20538;-87
2022/09/15 05:21:07;;;;;;;3.97;1.60;;;17.50;99.90;;;;;;4975753;28;20509;-86
2022/09/15 05:23:36;;;;;;;1.50;1.10;;;17.50;99.90;;;;;;4976291;28;20585;-86
2022/09/15 05:26:04;;;;;;;4.63;1.53;;;17.60;99.90;;;;;;4976257;28;20463;-86
2022/09/15 05:28:33;;;;;;;1.10;1.10;;;17.50;99.90;;;;;;4975961;28;20454;-86
2022/09/15 05:30:59;;;;;;;1.53;1.40;;;17.60;99.90;;;;;;4976698;28;20482;-82
2022/09/15 05:33:26;;;;;;;6.80;1.63;;;17.70;99.90;;;;;;4976689;28;20467;-84
2022/09/15 05:35:55;;;;;;;1.00;1.00;;;17.70;99.90;;;;;;4976034;28;20511;-86
2022/09/15 05:38:36;;;;;;;2.40;1.60;;;17.60;99.90;;;;;;4975661;28;20448;-86
2022/09/15 05:41:16;;;;;;;2.10;1.53;;;17.70;99.90;;;;;;4991282;28;20465;-86
2022/09/15 05:44:05;;;;;;;1.40;1.30;;;17.60;99.90;;;;;;4975949;28;20988;-86
2022/09/15 05:46:32;;;;;;;3.23;1.60;;;17.60;99.90;;;;;;4987973;28;20458;-86
2022/09/15 05:49:11;;;;;;;1.23;1.23;;;17.70;99.90;;;;;;4984446;28;20482;-86
2022/09/15 05:51:47;;;;;;;1.83;1.30;;;17.70;99.90;;;;;;4989241;23;21011;-85
2022/09/15 05:54:21;;;;;;;1.67;1.30;;;17.70;99.90;;;;;;4975416;28;20464;-85
2022/09/15 05:57:07;;;;;;;2.17;1.23;;;17.70;99.90;;;;;;4975549;28;20834;-85
2022/09/15 05:59:40;;;;;;;6.07;1.70;;;17.80;99.90;;;;;;4973804;28;20464;-85
2022/09/15 06:53:42;;;;;;;2.60;2.40;;;18.00;99.90;;;;;;4975946;28;20418;-86
2022/09/15 06:56:12;;;;;;;1.00;0.90;;;18.00;99.90;;;;;;4961184;28;20492;-85
2022/09/15 06:58:41;;;;;;;0.83;0.83;;;18.00;99.90;;;;;;4977076;28;20462;-86
2022/09/15 07:01:10;;;;;;;0.90;0.90;;;18.00;99.90;;;;;;4976724;28;20491;-85
2022/09/15 07:03:38;;;;;;;1.20;1.10;;;18.10;99.90;;;;;;4975050;28;21116;-84
2022/09/15 07:06:06;;;;;;;1.40;1.30;;;18.10;99.90;;;;;;4975380;28;20456;-85
2022/09/15 07:08:33;;;;;;;1.10;1.00;;;18.00;99.90;;;;;;4975833;28;20459;-84
2022/09/15 07:11:00;;;;;;;0.93;0.93;;;18.10;99.90;;;;;;4975731;28;20479;-84
2022/09/15 07:13:28;;;;;;;1.40;1.07;;;18.10;99.90;;;;;;4975454;28;20455;-84
2022/09/15 07:15:57;;;;;;;1.87;0.90;;;18.10;99.90;;;;;;4980086;28;20458;-84
2022/09/15 07:18:24;;;;;;;2.03;1.93;;;18.10;99.90;;;;;;4981480;28;20462;-83
2022/09/15 07:20:51;;;;;;;1.60;1.50;;;18.20;99.90;;;;;;4980538;28;20472;-84
2022/09/15 07:23:19;;;;;;;0.93;0.93;;;18.20;99.90;;;;;;4977570;28;20458;-84
2022/09/15 07:25:46;;;;;;;1.93;1.10;;;18.10;99.90;;;;;;4976465;28;20545;-83
2022/09/15 07:28:12;;;;;;;2.40;1.37;;;18.20;99.90;;;;;;4977762;28;20451;-83
2022/09/15 07:30:40;;;;;;;1.00;1.00;;;18.20;99.90;;;;;;4977216;28;20990;-84
2022/09/15 07:33:08;;;;;;;1.40;1.30;;;18.20;99.90;;;;;;4976359;28;20485;-84
2022/09/15 07:35:34;;;;;;;1.40;1.30;;;18.20;99.90;;;;;;4976335;28;20956;-83
2022/09/15 07:38:01;;;;;;;1.20;1.17;;;18.30;99.90;;;;;;4973726;28;20466;-83
2022/09/15 07:40:28;;;;;;;2.07;1.67;;;18.30;99.90;;;;;;4975696;28;20470;-82
2022/09/15 07:42:55;;;;;;;1.23;1.13;;;18.30;99.90;;;;;;4976104;28;20480;-82
2022/09/15 07:45:22;;;;;;;1.03;0.90;;;18.40;99.90;;;;;;4974871;28;20488;-82
2022/09/15 07:47:50;;;;;;;2.40;1.37;;;18.30;99.90;;;;;;4974214;28;20455;-82
2022/09/15 07:50:17;;;;;;;1.60;1.23;;;18.30;99.90;;;;;;4976285;28;20476;-83
2022/09/15 07:52:43;;;;;;;1.47;1.13;;;18.20;99.90;;;;;;4978753;28;20456;-84
2022/09/15 07:55:11;;;;;;;4.10;2.23;;;18.10;99.90;;;;;;4978986;28;20447;-83
2022/09/15 07:57:37;;;;;;;3.50;1.40;;;18.10;99.90;;;;;;4979534;28;20487;-84
2022/09/15 08:00:05;;;;;;;1.30;1.20;;;18.20;99.90;;;;;;4979682;28;20541;-84
2022/09/15 08:02:32;;;;;;;1.53;1.43;;;18.10;99.90;;;;;;4980987;28;20963;-84
2022/09/15 08:05:00;;;;;;;2.00;1.30;;;18.10;99.90;;;;;;4979013;28;20501;-83
2022/09/15 08:07:27;;;;;;;1.50;1.20;;;18.00;99.90;;;;;;4979457;28;20465;-84
2022/09/15 08:09:54;;;;;;;1.97;1.77;;;18.00;99.90;;;;;;4976155;28;20451;-84
2022/09/15 08:12:20;;;;;;;2.20;1.50;;;18.10;99.90;;;;;;4976587;28;20475;-85
2022/09/15 08:14:47;;;;;;;2.30;1.47;;;18.10;99.90;;;;;;4978941;28;20450;-85
2022/09/15 08:17:14;;;;;;;1.77;1.67;;;18.10;99.90;;;;;;4979702;28;20846;-84
2022/09/15 08:19:40;;;;;;;2.00;1.40;;;18.10;99.90;;;;;;4977845;28;20463;-85
2022/09/15 08:22:08;;;;;;;1.60;1.50;;;18.10;99.90;;;;;;4980380;28;20490;-85
2022/09/15 08:24:36;;;;;;;3.87;1.67;;;18.10;99.90;;;;;;4975161;28;20490;-86
2022/09/15 08:27:03;;;;;;;3.87;1.60;;;18.10;99.90;;;;;;4973054;28;20518;-85
2022/09/15 08:29:30;;;;;;;1.70;1.60;;;18.10;99.90;;;;;;4972737;28;20459;-85
2022/09/15 08:31:57;;;;;;;1.93;1.70;;;18.00;99.90;;;;;;4973732;28;21208;-85
2022/09/15 08:34:24;;;;;;;1.93;1.83;;;18.10;99.90;;;;;;4972434;28;20444;-85
2022/09/15 08:36:51;;;;;;;1.60;1.50;;;18.10;99.90;;;;;;4973600;28;20459;-85
2022/09/15 08:39:19;;;;;;;4.30;1.80;;;18.00;99.90;;;;;;4974134;28;20458;-86
2022/09/15 08:41:48;;;;;;;2.20;2.10;;;18.10;99.90;;;;;;4974448;28;20833;-85
2022/09/15 08:44:33;;;;;;;2.67;1.97;;;18.20;99.90;;;;;;4977256;28;20461;-85
2022/09/15 08:47:05;;;;;;;1.60;1.43;;;18.30;99.90;;;;;;4975980;28;20456;-85
2022/09/15 08:49:39;;;;;;;2.03;1.93;;;18.50;99.90;;;;;;4979244;28;20467;-85
2022/09/15 08:52:12;;;;;;;1.97;1.63;;;18.50;99.90;;;;;;4980651;28;20478;-85
2022/09/15 08:54:40;;;;;;;2.53;2.03;;;18.60;99.90;;;;;;4984298;28;20450;-85
2022/09/15 08:57:13;;;;;;;1.37;1.33;;;18.70;99.90;;;;;;4982438;28;20469;-86
2022/09/15 08:59:40;;;;;;;1.90;1.77;;;18.70;99.90;;;;;;4979817;28;20461;-84
2022/09/15 09:02:30;;;;;;;2.17;2.03;;;18.80;99.90;;;;;;4981329;28;20486;-85
2022/09/15 09:05:05;;;;;;;1.40;1.30;;;18.70;99.90;;;;;;4969289;28;20789;-85
2022/09/15 09:07:52;;;;;;;1.37;1.37;;;18.80;99.90;;;;;;4980298;28;20466;-84
2022/09/15 09:10:31;;;;;;;1.27;1.17;;;18.80;99.90;;;;;;4975883;28;20871;-84
2022/09/15 09:13:10;;;;;;;1.87;1.77;;;18.80;99.90;;;;;;4986428;28;20453;-85
2022/09/15 09:15:49;;;;;;;1.20;1.20;;;18.90;99.90;;;;;;4979178;28;20447;-86
2022/09/15 09:18:45;;;;;;;1.33;1.17;;;18.80;99.90;;;;;;4977666;28;20452;-84
2022/09/15 09:21:21;;;;;;;3.70;1.57;;;18.70;99.90;;;;;;4979130;28;20477;-86
2022/09/15 09:23:54;;;;;;;1.07;0.97;;;18.80;99.90;;;;;;4978550;28;20455;-84
2022/09/15 09:26:22;;;;;;;2.43;2.23;;;18.90;99.90;;;;;;4976077;28;20501;-83
2022/09/15 09:28:55;;;;;;;2.03;1.60;;;18.90;99.90;;;;;;4976425;28;20852;-81
2022/09/15 09:31:24;;;;;;;1.20;1.13;;;19.00;99.90;;;;;;4978090;28;20483;-85
2022/09/15 09:33:54;;;;;;;1.80;1.70;;;19.10;99.90;;;;;;4979218;28;20502;-85
2022/09/15 09:36:21;;;;;;;0.90;0.90;;;19.30;99.90;;;;;;4979149;28;20447;-85
2022/09/15 09:38:49;;;;;;;1.10;1.00;;;19.50;99.90;;;;;;4978413;28;20486;-85
2022/09/15 09:41:21;;;;;;;1.20;1.10;;;19.50;99.90;;;;;;4980667;28;20470;-85
2022/09/15 09:43:49;;;;;;;1.30;1.20;;;19.60;99.90;;;;;;4976655;28;20949;-85
2022/09/15 09:46:18;;;;;;;1.00;1.00;;;19.60;99.90;;;;;;4976436;28;20487;-85
2022/09/15 09:48:55;;;;;;;1.60;1.50;;;19.60;99.90;;;;;;4971649;28;20824;-85
2022/09/15 09:51:31;;;;;;;2.50;1.47;;;19.60;99.90;;;;;;4975853;28;20915;-85
2022/09/15 09:54:16;;;;;;;2.30;1.63;;;19.50;99.90;;;;;;4973221;28;20450;-84
2022/09/15 09:56:45;;;;;;;1.53;1.43;;;19.40;99.90;;;;;;4977778;28;20503;-86
2022/09/15 10:00:05;;;;;;;1.40;1.30;;;19.40;99.90;;;;;;4968181;28;20474;-87
2022/09/15 10:02:48;;;;;;;1.23;0.80;;;19.40;99.90;;;;;;4974816;28;20581;-86
2022/09/15 10:05:19;;;;;;;0.70;0.70;;;19.50;99.90;;;;;;4973247;28;20488;-87
2022/09/15 10:12:06;;;;;;;0.93;0.93;;;19.70;99.90;;;;;;4974719;28;20518;-86
2022/09/15 10:18:27;;;;;;;1.03;0.97;;;19.80;99.90;;;;;;4910910;29;20477;-85
2022/09/15 10:20:54;;;;;;;1.17;1.00;;;19.60;99.90;;;;;;4911439;29;20576;-84
2022/09/15 10:23:26;;;;;;;1.03;1.00;;;19.30;99.90;;;;;;4968021;28;20447;-85
2022/09/15 10:25:57;;;;;;;0.47;0.47;;;18.90;99.90;;;;;;4979984;28;20493;-83
2022/09/15 10:28:25;;;;;;;1.80;1.80;;;18.50;99.90;;;;;;4977257;28;20463;-85
2022/09/15 10:31:32;;;;;;;0.87;0.60;;;18.20;99.90;;;;;;4975464;28;20478;-85
2022/09/15 10:34:29;;;;;;;0.50;0.30;;;17.90;99.90;;;;;;4958215;29;20835;-84
2022/09/15 10:37:06;;;;;;;0.40;0.40;;;17.80;99.90;;;;;;4977128;28;20516;-83
2022/09/15 10:39:42;;;;;;;0.40;0.40;;;17.50;99.90;;;;;;4973565;28;20450;-84
2022/09/15 10:42:15;;;;;;;1.30;0.37;;;17.20;99.90;;;;;;4969731;28;20484;-85
2022/09/15 10:44:49;;;;;;;1.53;0.53;;;17.10;99.90;;;;;;4975240;28;20457;-84
2022/09/15 10:47:27;;;;;;;0.40;0.33;;;17.10;99.90;;;;;;4971828;28;20468;-84
2022/09/15 10:50:06;;;;;;;0.53;0.53;;;16.90;99.90;;;;;;4975360;28;20545;-85
2022/09/15 10:52:51;;;;;;;0.50;0.43;;;16.80;99.90;;;;;;4974250;28;20452;-86
2022/09/15 10:55:32;;;;;;;2.20;0.50;;;16.70;99.90;;;;;;4974792;28;20495;-85
2022/09/15 10:58:17;;;;;;;0.40;0.40;;;16.60;99.90;;;;;;4974949;28;20828;-85
2022/09/15 11:00:50;;;;;;;0.50;0.50;;;16.60;99.90;;;;;;4973923;28;21006;-85
2022/09/15 11:03:27;;;;;;;0.40;0.30;;;16.50;99.90;;;;;;4975593;28;20437;-85
2022/09/15 11:06:01;;;;;;;0.43;0.30;;;16.50;99.90;;;;;;4974324;28;20542;-84
2022/09/15 11:09:01;;;;;;;0.80;0.53;;;16.40;99.90;;;;;;4973745;28;20459;-85
2022/09/15 11:11:40;;;;;;;0.50;0.37;;;16.30;99.90;;;;;;4955380;28;20477;-86
2022/09/15 11:14:21;;;;;;;1.10;0.83;;;16.20;99.90;;;;;;4954793;29;20449;-86
2022/09/15 11:17:04;;;;;;;1.37;1.27;;;16.10;99.90;;;;;;4954540;29;20435;-86
2022/09/15 11:19:46;;;;;;;1.67;1.57;;;16.10;99.90;;;;;;4967087;28;20449;-88
2022/09/15 11:22:18;;;;;;;1.60;1.50;;;16.00;99.90;;;;;;4974964;28;20464;-85
2022/09/15 11:24:48;;;;;;;2.17;1.97;;;15.80;99.90;;;;;;4988438;28;20958;-87
2022/09/15 11:27:22;;;;;;;1.87;1.77;;;15.70;99.90;;;;;;4993365;28;20458;-88
2022/09/15 11:30:03;;;;;;;3.17;2.97;;;15.60;99.90;;;;;;4993021;28;20420;-88
2022/09/15 11:32:36;;;;;;;3.40;2.43;;;15.50;99.90;;;;;;4993437;28;20808;-89
2022/09/15 11:35:18;;;;;;;4.00;2.87;;;15.40;99.90;;;;;;4997096;28;20457;-84
2022/09/15 11:37:49;;;;;;;3.77;3.40;;;15.30;99.90;;;;;;4993116;28;20429;-84
2022/09/15 11:40:23;;;;;;;3.50;3.20;;;15.20;99.90;;;;;;4989948;28;20508;-83
2022/09/15 11:42:56;;;;;;;3.67;3.30;;;15.20;99.90;;;;;;4978533;28;20500;-83
2022/09/15 11:45:28;;;;;;;7.60;4.27;;;15.10;99.90;;;;;;4975280;28;20476;-85
2022/09/15 11:47:59;;;;;;;4.10;3.80;;;15.20;99.90;;;;;;4973979;28;20840;-85
2022/09/15 11:50:37;;;;;;;4.43;3.40;;;15.30;99.90;;;;;;4973515;28;20815;-86
2022/09/15 11:59:55;;;;;;;3.37;3.17;;;15.20;99.90;;;;;;4973137;28;20912;-85
2022/09/15 12:02:51;;;;;;;4.47;4.07;;;15.10;99.90;;;;;;4973987;28;20462;-86
2022/09/15 12:12:07;;;;;;;5.30;4.80;;;15.00;99.90;;;;;;4979836;28;20511;-86
2022/09/15 12:14:36;;;;;;;5.43;5.03;;;15.00;99.90;;;;;;4976501;28;20515;-85
2022/09/15 12:17:06;;;;;;;5.67;5.17;;;15.20;99.90;;;;;;4974538;28;20467;-85
2022/09/15 12:19:52;;;;;;;4.93;4.53;;;15.20;99.90;;;;;;4981218;28;20444;-86
2022/09/15 12:22:23;;;;;;;6.53;5.93;;;15.20;99.90;;;;;;4979665;28;20452;-84
2022/09/15 12:24:56;;;;;;;6.43;5.87;;;15.20;99.90;;;;;;4983389;28;20449;-84
2022/09/15 12:27:35;;;;;;;6.30;5.70;;;15.10;99.90;;;;;;4981509;28;20487;-86
2022/09/15 12:30:02;;;;;;;6.33;5.50;;;15.10;99.90;;;;;;4980424;28;20953;-84
2022/09/15 12:32:32;;;;;;;7.13;6.40;;;15.10;99.90;;;;;;4980657;28;20467;-85
2022/09/15 12:35:04;;;;;;;6.47;5.93;;;15.20;99.90;;;;;;4980830;28;20835;-84
2022/09/15 12:37:39;;;;;;;6.57;6.00;;;15.20;99.90;;;;;;4980328;28;20542;-84
2022/09/15 12:40:23;;;;;;;7.70;5.93;;;15.30;99.90;;;;;;4979975;28;20463;-84
2022/09/15 12:42:50;;;;;;;6.30;5.70;;;15.40;99.90;;;;;;4980677;28;20463;-84
2022/09/15 12:45:23;;;;;;;6.77;5.23;;;15.30;99.90;;;;;;4979731;28;20481;-84
2022/09/15 12:47:55;;;;;;;9.50;6.70;;;15.30;99.90;;;;;;4979805;28;20482;-84
2022/09/15 12:50:27;;;;;;;7.03;6.50;;;15.20;99.90;;;;;;4979530;28;20531;-84
2022/09/15 12:52:58;;;;;;;6.73;6.20;;;15.20;99.90;;;;;;4980123;28;20973;-83
2022/09/15 12:55:27;;;;;;;6.83;6.23;;;15.20;99.90;;;;;;4981157;28;20516;-85
2022/09/15 12:57:57;;;;;;;6.33;5.83;;;15.30;99.90;;;;;;4980928;28;20800;-84
2022/09/15 13:00:33;;;;;;;8.73;6.10;;;15.30;99.90;;;;;;4981061;28;20463;-84
2022/09/15 13:03:02;;;;;;;5.53;5.03;;;15.50;99.90;;;;;;4980530;28;20869;-84
2022/09/15 13:05:52;;;;;;;7.10;6.50;;;15.70;99.90;;;;;;4978576;28;20453;-85
2022/09/15 13:08:47;;;;;;;5.73;5.23;;;15.80;99.90;;;;;;4978254;28;20544;-84
2022/09/15 13:18:18;;;;;;;4.63;4.23;;;16.40;99.90;;;;;;4907977;29;20479;-86
2022/09/15 13:34:40;;;;;;;3.93;3.00;;;17.20;99.90;;;;;;4913255;29;20471;-86
2022/09/15 13:37:40;;;;;;;3.23;2.90;;;17.30;99.90;;;;;;4947710;29;20447;-87
2022/09/15 13:40:53;;;;;;;3.23;3.03;;;17.50;99.90;;;;;;4985688;28;20821;-87
2022/09/15 13:44:09;;;;;;;3.37;3.17;;;17.60;99.90;;;;;;4953915;29;20466;-85
2022/09/15 13:47:01;;;;;;;3.50;3.20;;;17.70;99.90;;;;;;4971447;28;20567;-86
2022/09/15 13:49:44;;;;;;;5.07;3.73;;;17.90;99.90;;;;;;4976667;28;20527;-85
2022/09/15 13:52:24;;;;;;;3.30;3.00;;;18.30;99.90;;;;;;4985886;28;20475;-86
2022/09/15 13:55:20;;;;;;;5.37;3.80;;;19.00;99.90;;;;;;4982694;28;20443;-85
2022/09/15 13:57:51;;;;;;;3.37;3.07;;;19.10;99.90;;;;;;4978351;28;20531;-85
2022/09/15 14:00:20;;;;;;;5.10;2.50;;;19.20;99.90;;;;;;4979741;28;20475;-85
2022/09/15 14:02:50;;;;;;;3.00;2.70;;;19.60;99.90;;;;;;4980143;28;20961;-84
2022/09/15 14:05:20;;;;;;;4.57;2.83;;;19.80;99.90;;;;;;4979447;28;20963;-86
2022/09/15 14:07:55;;;;;;;2.43;2.23;;;19.90;99.90;;;;;;4979897;28;20487;-85
2022/09/15 14:10:26;;;;;;;2.23;2.03;;;19.90;99.90;;;;;;4979439;28;20566;-84
2022/09/15 14:12:54;;;;;;;2.40;2.27;;;20.10;99.90;;;;;;4981069;28;20444;-85
2022/09/15 14:18:58;;;;;;;3.17;2.93;;;19.90;99.90;;;;;;4954061;29;20475;-85
2022/09/15 14:22:01;;;;;;;4.10;3.70;;;19.40;99.90;;;;;;4956219;28;20480;-85
2022/09/15 14:24:31;;;;;;;3.50;3.23;;;19.00;99.90;;;;;;4942226;28;21108;-85
2022/09/15 14:27:02;;;;;;;3.83;3.63;;;18.80;99.90;;;;;;4959206;29;20858;-83
2022/09/15 14:29:29;;;;;;;6.90;4.37;;;18.80;99.90;;;;;;4957790;29;20995;-85
2022/09/15 14:32:02;;;;;;;3.50;3.30;;;18.60;99.90;;;;;;4958129;28;20557;-83
2022/09/15 14:34:35;;;;;;;4.30;3.93;;;18.40;99.90;;;;;;4957655;29;20468;-83
2022/09/15 14:37:05;;;;;;;4.63;4.33;;;18.40;99.90;;;;;;4958843;29;20455;-83
2022/09/15 14:39:36;;;;;;;3.33;3.13;;;18.60;99.90;;;;;;4958241;29;20467;-83
2022/09/15 14:42:16;;;;;;;3.60;3.33;;;19.20;99.90;;;;;;4957555;29;20567;-82
2022/09/15 14:44:43;;;;;;;2.80;2.70;;;19.80;99.90;;;;;;4957721;28;20935;-84
2022/09/15 14:47:17;;;;;;;3.20;2.90;;;20.70;99.90;;;;;;4957694;28;20484;-83
2022/09/15 14:49:44;;;;;;;3.67;3.37;;;21.70;99.90;;;;;;4958488;29;20445;-82
2022/09/15 14:52:26;;;;;;;4.00;3.43;;;22.30;99.90;;;;;;4958219;28;20551;-82
2022/09/15 14:54:59;;;;;;;3.83;3.63;;;22.70;99.90;;;;;;4957773;29;20459;-82
2022/09/15 14:57:29;;;;;;;5.87;4.23;;;22.70;99.90;;;;;;4959264;29;20452;-82